createdAt,value
2023-11-13T11:55:07.302Z,97317.34
2023-11-13T11:57:13.236Z,97317.41
2023-11-13T11:59:15.739Z,97315.88
2023-11-13T12:01:19.014Z,97327.25
2023-11-13T12:03:21.335Z,97317.00
2023-11-13T12:05:24.762Z,97318.97
2023-11-13T12:07:28.550Z,97324.06
2023-11-13T12:09:31.997Z,97325.06
2023-11-13T12:11:34.042Z,97328.41
2023-11-13T12:13:36.122Z,97341.44
2023-11-13T12:15:38.241Z,97333.78
2023-11-13T12:17:41.116Z,97350.97
2023-11-13T12:19:43.192Z,97337.28
2023-11-13T12:21:45.292Z,97355.31
2023-11-13T12:23:48.309Z,97349.22
2023-11-13T12:25:50.502Z,97356.22
2023-11-13T12:27:55.541Z,97356.94
2023-11-13T12:30:06.729Z,97346.50
2023-11-13T12:32:13.311Z,97348.16
2023-11-13T12:34:16.199Z,97347.34
2023-11-13T12:36:19.050Z,97364.47
2023-11-13T12:38:21.114Z,97363.59
2023-11-13T12:40:23.622Z,97359.34
2023-11-13T12:42:27.898Z,97375.63
2023-11-13T12:44:31.617Z,97367.06
2023-11-13T12:46:48.037Z,97361.03
2023-11-13T12:49:01.050Z,97377.44
2023-11-13T12:51:09.936Z,97375.78
2023-11-13T12:53:15.124Z,97366.22
2023-11-13T12:55:23.641Z,97374.75
2023-11-13T12:57:27.519Z,97377.38
2023-11-13T12:59:29.515Z,97385.34
2023-11-13T13:01:33.659Z,97382.19
2023-11-13T13:03:38.109Z,97384.88
2023-11-13T13:05:43.598Z,97386.75
2023-11-13T13:07:45.860Z,97358.66
2023-11-13T13:09:47.937Z,97401.38
2023-11-13T13:11:51.275Z,97396.19
2023-11-13T13:13:55.482Z,97413.41
2023-11-13T13:15:58.977Z,97408.16
2023-11-13T13:18:04.154Z,97410.75
2023-11-13T13:20:10.308Z,97404.00
2023-11-13T13:22:14.145Z,97427.09
2023-11-13T13:24:17.043Z,97419.41
2023-11-13T13:26:21.762Z,97420.22
2023-11-13T13:28:23.833Z,97400.59
2023-11-13T13:30:27.537Z,97410.84
2023-11-13T13:32:32.174Z,97409.22
2023-11-13T13:34:34.318Z,97407.44
2023-11-13T13:36:38.552Z,97413.50
2023-11-13T13:38:40.695Z,97393.84
2023-11-13T13:40:44.082Z,97412.66
2023-11-13T13:42:46.368Z,97416.94
2023-11-13T13:44:50.413Z,97405.78
2023-11-13T13:46:52.780Z,97421.28
2023-11-13T13:48:55.856Z,97418.72
2023-11-13T13:50:58.959Z,97414.31
2023-11-13T13:53:04.326Z,97426.31
2023-11-13T13:55:11.637Z,97408.28
2023-11-13T13:57:17.158Z,97433.97
2023-11-13T13:59:23.385Z,97426.19
2023-11-13T14:01:25.899Z,97437.41
2023-11-13T14:03:28.701Z,97433.13
2023-11-13T14:05:31.201Z,97424.50
2023-11-13T14:07:33.752Z,97440.81
2023-11-13T14:09:36.071Z,97446.03
2023-11-13T14:11:44.522Z,97439.94
2023-11-13T14:13:52.418Z,97440.91
2023-11-13T14:16:04.764Z,97454.66
2023-11-13T14:18:13.260Z,97451.19
2023-11-13T14:20:16.956Z,97458.06
2023-11-13T14:22:23.120Z,97440.09
2023-11-13T14:24:26.977Z,97456.38
2023-11-13T14:26:29.322Z,97454.66
2023-11-13T14:28:32.312Z,97462.44
2023-11-13T14:30:36.209Z,97464.09
2023-11-13T14:32:38.562Z,97461.47
2023-11-13T14:34:41.172Z,97453.69
2023-11-13T14:36:44.735Z,97462.25
2023-11-13T14:38:47.559Z,97455.38
2023-11-13T14:40:49.815Z,97451.91
2023-11-13T14:42:53.037Z,97455.38
2023-11-13T14:44:57.361Z,97453.69
2023-11-13T14:47:00.044Z,97464.13
2023-11-13T14:49:02.453Z,97459.75
2023-11-13T14:51:07.295Z,97473.53
2023-11-13T14:53:09.956Z,97474.38
2023-11-13T14:55:12.778Z,97472.63
2023-11-13T14:57:14.789Z,97475.34
2023-11-13T14:59:16.850Z,97471.03
2023-11-13T15:01:19.066Z,97474.50
2023-11-13T15:03:21.359Z,97472.81
2023-11-13T15:05:23.757Z,97471.09
2023-11-13T15:07:26.013Z,97476.28
2023-11-13T15:09:29.112Z,97473.72
2023-11-13T15:11:31.096Z,97478.91
2023-11-13T15:13:33.210Z,97471.22
2023-11-13T15:15:35.724Z,97475.44
2023-11-13T15:17:41.936Z,97477.19
2023-11-13T15:19:44.163Z,97485.75
2023-11-13T15:21:47.850Z,97474.59
2023-11-13T15:23:50.307Z,97484.09
2023-11-13T15:25:52.358Z,97484.16
2023-11-13T15:27:55.042Z,97486.81
2023-11-13T15:29:57.382Z,97486.00
2023-11-13T15:31:59.515Z,97478.31
2023-11-13T15:34:01.535Z,97491.16
2023-11-13T15:36:03.825Z,97483.38
2023-11-13T15:38:06.065Z,97486.75
2023-11-13T15:40:09.706Z,97491.06
2023-11-13T15:42:13.503Z,97483.31
2023-11-13T15:44:15.912Z,97492.88
2023-11-13T15:46:18.472Z,97495.53
2023-11-13T15:48:20.645Z,97499.06
2023-11-13T15:50:22.622Z,97507.00
2023-11-13T15:52:26.414Z,97511.41
2023-11-13T15:54:35.323Z,97507.09
2023-11-13T15:56:37.315Z,97507.84
2023-11-13T15:58:39.505Z,97489.78
2023-11-13T16:00:41.812Z,97512.09
2023-11-13T16:02:48.265Z,97502.72
2023-11-13T16:04:50.647Z,97491.56
2023-11-13T16:06:53.191Z,97501.94
2023-11-13T16:08:55.585Z,97501.22
2023-11-13T16:11:00.697Z,97500.31
2023-11-13T16:13:04.413Z,97489.88
2023-11-13T16:15:08.499Z,97482.91
2023-11-13T16:17:11.469Z,97500.97
2023-11-13T16:19:13.625Z,97491.38
2023-11-13T16:21:18.652Z,97499.06
2023-11-13T16:23:22.271Z,97502.38
2023-11-13T16:25:25.356Z,97505.69
2023-11-13T16:27:27.562Z,97499.56
2023-11-13T16:29:29.848Z,97495.97
2023-11-13T16:31:32.323Z,97498.44
2023-11-13T16:33:40.009Z,97484.69
2023-11-13T16:35:46.536Z,97494.91
2023-11-13T16:37:50.659Z,97489.66
2023-11-13T16:39:56.741Z,97488.63
2023-11-13T16:41:59.993Z,97486.03
2023-11-13T16:44:02.150Z,97489.34
2023-11-13T16:46:04.611Z,97484.13
2023-11-13T16:48:07.442Z,97486.69
2023-11-13T16:50:10.099Z,97493.50
2023-11-13T16:52:12.901Z,97480.47
2023-11-13T16:54:18.111Z,97495.16
2023-11-13T16:56:22.718Z,97488.97
2023-11-13T16:58:25.019Z,97486.38
2023-11-13T17:00:27.899Z,97471.81
2023-11-13T17:02:30.473Z,97470.91
2023-11-13T17:04:34.023Z,97479.38
2023-11-13T17:06:36.241Z,97477.66
2023-11-13T17:08:38.240Z,97482.63
2023-11-13T17:10:41.395Z,97471.34
2023-11-13T17:12:43.861Z,97489.44
2023-11-13T17:14:45.786Z,97485.09
2023-11-13T17:16:48.102Z,97466.94
2023-11-13T17:18:50.121Z,97453.13
2023-11-13T17:20:55.714Z,97462.47
2023-11-13T17:23:06.454Z,97464.94
2023-11-13T17:25:09.904Z,97452.88
2023-11-13T17:27:11.880Z,97447.66
2023-11-13T17:29:14.158Z,97458.72
2023-11-13T17:31:16.253Z,97450.13
2023-11-13T17:33:18.432Z,97451.72
2023-11-13T17:35:21.480Z,97461.16
2023-11-13T17:37:24.098Z,97457.69
2023-11-13T17:39:26.256Z,97459.34
2023-11-13T17:41:28.328Z,97437.81
2023-11-13T17:43:30.458Z,97462.69
2023-11-13T17:45:33.017Z,97461.72
2023-11-13T17:47:35.667Z,97449.59
2023-11-13T17:49:38.137Z,97454.81
2023-11-13T17:51:40.665Z,97455.53
2023-11-13T17:53:44.070Z,97445.97
2023-11-13T17:55:46.157Z,97444.38
2023-11-13T17:57:48.266Z,97445.97
2023-11-13T17:59:50.715Z,97443.38
2023-11-13T18:01:56.887Z,97444.28
2023-11-13T18:03:59.414Z,97451.03
2023-11-13T18:06:01.616Z,97457.00
2023-11-13T18:08:04.951Z,97454.47
2023-11-13T18:10:08.029Z,97453.59
2023-11-13T18:12:10.288Z,97463.09
2023-11-13T18:14:12.890Z,97464.63
2023-11-13T18:16:15.990Z,97461.16
2023-11-13T18:18:18.122Z,97464.72
2023-11-13T18:20:20.287Z,97463.00
2023-11-13T18:22:22.858Z,97468.16
2023-11-13T18:24:25.092Z,97472.53
2023-11-13T18:26:28.300Z,97456.19
2023-11-13T18:28:30.553Z,97464.66
2023-11-13T18:30:32.709Z,97463.06
2023-11-13T18:32:35.360Z,97479.28
2023-11-13T18:34:37.361Z,97480.13
2023-11-13T18:36:39.840Z,97455.97
2023-11-13T18:38:46.447Z,97470.63
2023-11-13T18:40:49.370Z,97468.91
2023-11-13T18:42:51.524Z,97474.00
2023-11-13T18:44:53.758Z,97480.13
2023-11-13T18:46:55.989Z,97473.22
2023-11-13T18:48:59.310Z,97471.50
2023-11-13T18:51:03.658Z,97465.56
2023-11-13T18:53:06.330Z,97476.53
2023-11-13T18:55:08.863Z,97475.63
2023-11-13T18:57:10.928Z,97486.94
2023-11-13T18:59:17.877Z,97481.75
2023-11-13T19:01:20.765Z,97481.75
2023-11-13T19:03:23.155Z,97488.66
2023-11-13T19:05:25.222Z,97497.22
2023-11-13T19:07:27.404Z,97473.03
2023-11-13T19:09:30.625Z,97472.22
2023-11-13T19:11:32.665Z,97485.94
2023-11-13T19:13:35.864Z,97480.75
2023-11-13T19:15:40.927Z,97486.69
2023-11-13T19:17:45.057Z,97477.25
2023-11-13T19:19:46.992Z,97494.44
2023-11-13T19:21:49.797Z,97487.66
2023-11-13T19:23:52.022Z,97489.31
2023-11-13T19:25:54.313Z,97488.47
2023-11-13T19:27:56.360Z,97488.50
2023-11-13T19:29:58.840Z,97480.03
2023-11-13T19:32:02.513Z,97494.63
2023-11-13T19:34:05.466Z,97494.78
2023-11-13T19:36:09.936Z,97490.34
2023-11-13T19:38:12.105Z,97501.59
2023-11-13T19:40:14.365Z,97502.38
2023-11-13T19:42:16.379Z,97500.81
2023-11-13T19:44:18.938Z,97483.69
2023-11-13T19:46:21.029Z,97491.50
2023-11-13T19:48:25.027Z,97504.38
2023-11-13T19:50:29.083Z,97507.03
2023-11-13T19:52:38.009Z,97494.00
2023-11-13T19:54:47.019Z,97492.44
2023-11-13T19:56:52.128Z,97494.22
2023-11-13T19:58:55.803Z,97467.66
2023-11-13T20:00:57.879Z,97484.03
2023-11-13T20:03:01.355Z,97494.41
2023-11-13T20:05:05.444Z,97481.59
2023-11-13T20:07:08.447Z,97488.53
2023-11-13T20:09:15.929Z,97489.34
2023-11-13T20:11:21.873Z,97480.75
2023-11-13T20:13:30.802Z,97461.03
2023-11-13T20:15:37.072Z,97460.94
2023-11-13T20:17:43.838Z,97454.22
2023-11-13T20:19:46.924Z,97479.00
2023-11-13T20:21:49.871Z,97478.94
2023-11-13T20:23:54.346Z,97464.34
2023-11-13T20:26:00.811Z,97458.47
2023-11-13T20:28:09.400Z,97446.34
2023-11-13T20:30:13.238Z,97472.03
2023-11-13T20:32:16.009Z,97475.56
2023-11-13T20:34:18.797Z,97487.53
2023-11-13T20:36:26.895Z,97490.16
2023-11-13T20:38:31.175Z,97466.25
2023-11-13T20:40:36.054Z,97456.09
2023-11-13T20:42:41.207Z,97453.50
2023-11-13T20:44:43.810Z,97462.97
2023-11-13T20:46:46.592Z,97473.13
2023-11-13T20:48:49.213Z,97479.09
2023-11-13T20:50:51.930Z,97491.94
2023-11-13T20:52:57.449Z,97452.50
2023-11-13T20:55:00.288Z,97496.06
2023-11-13T20:57:03.453Z,97461.06
2023-11-13T20:59:08.228Z,97461.84
2023-11-13T21:01:13.606Z,97482.38
2023-11-13T21:03:17.563Z,97459.25
2023-11-13T21:05:20.814Z,97478.03
2023-11-13T21:07:27.287Z,97477.13
2023-11-13T21:09:31.891Z,97478.72
2023-11-13T21:11:35.242Z,97471.97
2023-11-13T21:13:46.332Z,97476.22
2023-11-13T21:15:49.473Z,97491.63
2023-11-13T21:17:51.748Z,97489.94
2023-11-13T21:19:54.007Z,97495.94
2023-11-13T21:21:57.024Z,97487.28
2023-11-13T21:23:59.400Z,97497.53
2023-11-13T21:26:03.809Z,97494.16
2023-11-13T21:28:07.791Z,97494.94
2023-11-13T21:30:10.633Z,97488.97
2023-11-13T21:32:12.924Z,97487.28
2023-11-13T21:34:15.319Z,97483.09
2023-11-13T21:36:17.367Z,97489.91
2023-11-13T21:38:19.445Z,97485.69
2023-11-13T21:40:21.908Z,97489.94
2023-11-13T21:42:24.218Z,97491.72
2023-11-13T21:44:27.461Z,97489.22
2023-11-13T21:46:30.108Z,97493.53
2023-11-13T21:48:32.684Z,97494.38
2023-11-13T21:50:34.879Z,97487.50
2023-11-13T21:52:37.344Z,97485.81
2023-11-13T21:54:39.439Z,97484.91
2023-11-13T21:56:41.655Z,97481.53
2023-11-13T21:58:44.102Z,97484.00
2023-11-13T22:00:46.731Z,97483.25
2023-11-13T22:02:49.125Z,97490.16
2023-11-13T22:04:52.403Z,97477.28
2023-11-13T22:06:57.358Z,97444.81
2023-11-13T22:08:59.900Z,97456.81
2023-11-13T22:11:02.625Z,97461.97
2023-11-13T22:13:06.499Z,97473.94
2023-11-13T22:15:11.011Z,97467.94
2023-11-13T22:17:37.716Z,97474.91
2023-11-13T22:19:50.803Z,97440.78
2023-11-13T22:21:54.216Z,97474.28
2023-11-13T22:23:56.331Z,97458.81
2023-11-13T22:25:58.948Z,97459.75
2023-11-13T22:28:01.407Z,97457.91
2023-11-13T22:33:00.455Z,97464.69
2023-11-13T22:35:07.993Z,97452.63
2023-11-13T22:37:21.991Z,97438.38
2023-11-13T22:39:27.517Z,97455.25
2023-11-13T22:41:30.554Z,97460.50
2023-11-13T22:43:33.653Z,97463.16
2023-11-13T22:45:35.805Z,97463.16
2023-11-13T22:47:37.949Z,97466.59
2023-11-13T22:49:42.528Z,97478.53
2023-11-13T22:51:46.056Z,97480.25
2023-11-13T22:53:48.152Z,97483.66
2023-11-13T22:55:50.331Z,97456.25
2023-11-13T22:57:52.407Z,97470.81
2023-11-13T22:59:54.586Z,97478.53
2023-11-13T23:01:57.261Z,97480.31
2023-11-13T23:03:59.547Z,97490.81
2023-11-13T23:06:02.433Z,97489.19
2023-11-13T23:08:06.063Z,97467.91
2023-11-13T23:10:09.899Z,97497.91
2023-11-13T23:12:12.693Z,97496.34
2023-11-13T23:14:15.629Z,97494.81
2023-11-13T23:16:18.380Z,97491.41
2023-11-13T23:18:22.119Z,97503.47
2023-11-13T23:20:25.794Z,97497.50
2023-11-13T23:22:27.907Z,97494.16
2023-11-13T23:24:30.199Z,97490.84
2023-11-13T23:26:33.057Z,97497.84
2023-11-13T23:28:35.234Z,97509.19
2023-11-13T23:30:37.559Z,97503.31
2023-11-13T23:32:40.073Z,97506.91
2023-11-13T23:34:42.311Z,97495.91
2023-11-13T23:36:44.882Z,97504.59
2023-11-13T23:38:46.947Z,97508.13
2023-11-13T23:40:49.687Z,97508.28
2023-11-13T23:42:51.769Z,97512.63
2023-11-13T23:44:54.880Z,97498.97
2023-11-13T23:46:57.199Z,97509.34
2023-11-13T23:48:59.097Z,97513.72
2023-11-13T23:51:01.135Z,97504.31
2023-11-13T23:53:03.694Z,97518.16
2023-11-13T23:55:06.235Z,97520.88
2023-11-13T23:57:08.315Z,97523.38
2023-11-13T23:59:10.356Z,97516.59
